createdAt,value
2023-05-19T00:01:20.953Z,8.10
2023-05-19T00:04:02.512Z,7.28
2023-05-19T00:06:32.878Z,7.07
2023-05-19T00:09:05.791Z,8.13
2023-05-19T00:11:36.172Z,7.75
2023-05-19T00:14:06.976Z,7.32
2023-05-19T00:16:34.519Z,7.53
2023-05-19T00:19:04.634Z,7.25
2023-05-19T00:21:32.754Z,6.85
2023-05-19T00:24:00.385Z,8.05
2023-05-19T00:26:28.335Z,7.45
2023-05-19T00:29:00.942Z,7.97
2023-05-19T00:31:27.914Z,7.15
2023-05-19T00:33:55.564Z,6.57
2023-05-19T00:36:22.575Z,7.93
2023-05-19T00:38:51.090Z,7.82
2023-05-19T00:41:18.442Z,7.40
2023-05-19T00:43:47.688Z,7.20
2023-05-19T00:46:14.525Z,6.25
2023-05-19T00:48:44.631Z,7.00
2023-05-19T00:51:14.744Z,6.90
2023-05-19T00:53:41.786Z,6.90
2023-05-19T00:56:08.886Z,7.57
2023-05-19T00:58:37.132Z,7.45
2023-05-19T01:01:06.894Z,6.85
2023-05-19T01:03:36.130Z,6.15
2023-05-19T01:06:05.283Z,7.85
2023-05-19T01:08:34.353Z,6.47
2023-05-19T01:11:02.273Z,7.22
2023-05-19T01:13:29.736Z,6.20
2023-05-19T01:16:35.262Z,6.70
2023-05-19T01:19:38.688Z,6.18
2023-05-19T01:22:48.626Z,7.50
2023-05-19T01:28:49.324Z,7.10
2023-05-19T01:31:23.920Z,6.20
2023-05-19T01:33:54.591Z,6.88
2023-05-19T01:36:23.724Z,6.75
2023-05-19T01:38:54.123Z,6.30
2023-05-19T01:41:23.060Z,7.75
2023-05-19T01:43:52.096Z,6.78
2023-05-19T01:46:19.310Z,6.93
2023-05-19T01:48:47.878Z,6.57
2023-05-19T01:51:14.767Z,6.65
2023-05-19T01:53:42.959Z,6.82
2023-05-19T01:56:10.126Z,6.35
2023-05-19T01:59:03.943Z,6.00
2023-05-19T02:01:53.039Z,6.30
2023-05-19T02:04:50.908Z,6.10
2023-05-19T02:07:37.381Z,7.07
2023-05-19T02:10:22.802Z,6.50
2023-05-19T02:12:54.063Z,7.38
2023-05-19T02:15:38.664Z,7.55
2023-05-19T02:18:09.462Z,7.25
2023-05-19T02:20:36.392Z,6.85
2023-05-19T02:23:03.246Z,7.20
2023-05-19T02:25:30.349Z,6.75
2023-05-19T02:27:59.339Z,6.40
2023-05-19T02:30:31.763Z,6.93
2023-05-19T02:33:00.645Z,5.35
2023-05-19T02:35:28.077Z,7.07
2023-05-19T02:37:54.929Z,6.90
2023-05-19T02:40:22.362Z,7.78
2023-05-19T02:42:49.865Z,6.82
2023-05-19T02:45:17.024Z,7.38
2023-05-19T02:47:43.872Z,6.35
2023-05-19T02:50:11.048Z,6.47
2023-05-19T02:52:37.920Z,6.57
2023-05-19T02:55:05.397Z,7.93
2023-05-19T02:57:35.007Z,6.93
2023-05-19T03:00:02.440Z,7.22
2023-05-19T03:02:29.688Z,6.70
2023-05-19T03:04:56.645Z,6.10
2023-05-19T03:07:25.369Z,6.95
2023-05-19T03:09:53.032Z,6.40
2023-05-19T03:12:19.938Z,6.65
2023-05-19T03:14:47.529Z,7.00
2023-05-19T03:17:14.427Z,7.35
2023-05-19T03:19:41.649Z,7.13
2023-05-19T03:22:08.550Z,7.20
2023-05-19T03:24:36.332Z,6.15
2023-05-19T03:27:05.841Z,7.35
2023-05-19T03:29:33.133Z,7.10
2023-05-19T03:32:00.465Z,7.55
2023-05-19T03:34:27.540Z,7.65
2023-05-19T03:36:55.294Z,7.28
2023-05-19T03:39:22.968Z,7.50
2023-05-19T03:41:49.981Z,7.45
2023-05-19T03:44:16.941Z,7.45
2023-05-19T03:46:44.668Z,7.07
2023-05-19T03:49:34.640Z,6.93
2023-05-19T03:52:24.353Z,7.43
2023-05-19T03:54:59.788Z,7.72
2023-05-19T03:57:26.978Z,7.30
2023-05-19T03:59:53.970Z,6.82
2023-05-19T04:02:21.668Z,6.65
2023-05-19T04:04:48.777Z,6.32
2023-05-19T04:07:15.761Z,7.18
2023-05-19T04:09:43.080Z,6.55
2023-05-19T04:12:10.123Z,6.75
2023-05-19T04:14:36.932Z,7.72
2023-05-19T04:17:04.047Z,6.70
2023-05-19T04:19:30.891Z,7.38
2023-05-19T04:21:58.546Z,7.70
2023-05-19T04:24:25.444Z,6.68
2023-05-19T04:26:53.645Z,6.57
2023-05-19T04:29:20.624Z,7.05
2023-05-19T04:31:47.541Z,7.43
2023-05-19T04:34:14.434Z,6.70
2023-05-19T04:36:41.613Z,7.50
2023-05-19T04:39:12.157Z,6.60
2023-05-19T04:41:44.618Z,7.40
2023-05-19T04:44:13.838Z,6.88
2023-05-19T04:46:42.717Z,6.85
2023-05-19T04:49:12.651Z,7.10
2023-05-19T04:51:42.410Z,7.70
2023-05-19T04:54:10.200Z,8.10
2023-05-19T04:56:37.330Z,6.82
2023-05-19T04:59:04.724Z,7.47
2023-05-19T05:01:33.818Z,7.18
2023-05-19T05:04:02.761Z,8.00
2023-05-19T05:06:31.779Z,6.90
2023-05-19T05:09:04.314Z,6.75
2023-05-19T05:11:32.245Z,7.88
2023-05-19T05:14:00.826Z,7.18
2023-05-19T05:16:30.051Z,7.07
2023-05-19T05:18:58.764Z,7.53
2023-05-19T05:21:26.590Z,8.30
2023-05-19T05:23:54.291Z,7.25
2023-05-19T05:26:33.289Z,7.97
2023-05-19T05:29:01.482Z,8.00
2023-05-19T05:31:29.312Z,7.47
2023-05-19T05:33:56.449Z,7.38
2023-05-19T05:36:27.464Z,7.00
2023-05-19T05:38:54.821Z,7.05
2023-05-19T05:41:23.080Z,7.85
2023-05-19T05:43:52.076Z,6.50
2023-05-19T05:46:19.030Z,7.72
2023-05-19T05:48:47.081Z,7.07
2023-05-19T05:51:14.381Z,7.03
2023-05-19T05:53:48.693Z,6.82
2023-05-19T05:56:16.589Z,6.93
2023-05-19T05:58:49.727Z,5.97
2023-05-19T06:01:17.776Z,5.13
2023-05-19T06:03:45.382Z,7.10
2023-05-19T06:06:16.070Z,6.88
2023-05-19T06:08:42.971Z,6.80
2023-05-19T06:11:11.278Z,6.60
2023-05-19T06:13:43.060Z,6.28
2023-05-19T06:16:16.191Z,6.70
2023-05-19T06:18:46.319Z,6.22
2023-05-19T06:21:13.590Z,6.10
2023-05-19T06:23:41.630Z,5.63
2023-05-19T06:26:10.544Z,5.75
2023-05-19T06:28:37.868Z,6.18
2023-05-19T06:31:06.035Z,6.05
2023-05-19T06:33:43.357Z,6.20
2023-05-19T06:36:10.684Z,6.43
2023-05-19T06:38:39.378Z,6.20
2023-05-19T06:41:07.003Z,6.60
2023-05-19T06:43:34.251Z,5.35
2023-05-19T06:46:04.753Z,5.22
2023-05-19T06:48:33.523Z,5.35
2023-05-19T06:51:00.664Z,5.80
2023-05-19T06:53:27.768Z,5.63
2023-05-19T06:55:59.985Z,5.82
2023-05-19T06:58:31.580Z,5.60
2023-05-19T07:00:59.852Z,5.22
2023-05-19T07:03:31.534Z,6.13
2023-05-19T07:05:59.457Z,6.03
2023-05-19T07:08:27.919Z,6.32
2023-05-19T07:10:57.755Z,5.43
2023-05-19T07:13:27.247Z,5.70
2023-05-19T07:15:58.224Z,4.75
2023-05-19T07:18:31.703Z,5.22
2023-05-19T07:20:59.003Z,4.95
2023-05-19T07:23:26.289Z,5.07
2023-05-19T07:25:56.843Z,5.43
2023-05-19T07:28:23.880Z,5.13
2023-05-19T07:30:50.883Z,4.90
2023-05-19T07:33:17.777Z,4.65
2023-05-19T07:35:45.574Z,5.10
2023-05-19T07:38:12.550Z,4.78
2023-05-19T07:40:39.438Z,5.55
2023-05-19T07:43:06.335Z,5.07
2023-05-19T07:45:33.318Z,5.18
2023-05-19T07:48:00.261Z,4.90
2023-05-19T07:50:27.340Z,5.25
2023-05-19T07:52:54.185Z,4.57
2023-05-19T07:55:23.169Z,4.85
2023-05-19T07:57:51.126Z,4.55
2023-05-19T08:00:18.410Z,4.10
2023-05-19T08:02:45.735Z,4.28
2023-05-19T08:05:12.778Z,4.50
2023-05-19T08:07:39.596Z,4.53
2023-05-19T08:10:07.054Z,4.13
2023-05-19T08:12:33.933Z,4.00
2023-05-19T08:15:01.787Z,3.95
2023-05-19T08:17:28.981Z,4.20
2023-05-19T08:19:55.898Z,4.00
2023-05-19T08:22:22.923Z,4.07
2023-05-19T08:24:51.668Z,3.95
2023-05-19T08:27:18.571Z,3.50
2023-05-19T08:29:45.438Z,3.58
2023-05-19T08:32:13.382Z,3.72
2023-05-19T08:34:41.309Z,4.10
2023-05-19T08:37:08.195Z,3.95
2023-05-19T08:39:35.120Z,4.40
2023-05-19T08:42:02.503Z,3.20
2023-05-19T08:44:30.943Z,3.85
2023-05-19T08:47:04.979Z,3.83
2023-05-19T08:49:37.089Z,3.38
2023-05-19T08:52:49.503Z,2.92
2023-05-19T08:55:55.410Z,3.40
2023-05-19T08:58:23.210Z,2.90
2023-05-19T09:00:51.246Z,2.58
2023-05-19T09:08:16.849Z,2.67
2023-05-19T09:10:43.675Z,2.35
2023-05-19T09:13:10.724Z,2.80
2023-05-19T09:15:41.424Z,2.40
2023-05-19T09:18:11.600Z,2.30
2023-05-19T09:20:41.534Z,2.13
2023-05-19T09:23:16.876Z,3.22
2023-05-19T09:25:52.354Z,2.60
2023-05-19T09:28:30.647Z,2.58
2023-05-19T09:31:01.232Z,2.15
2023-05-19T09:33:29.630Z,2.05
2023-05-19T09:35:57.249Z,2.15
2023-05-19T09:38:26.368Z,2.03
2023-05-19T09:40:58.296Z,2.33
2023-05-19T09:43:33.397Z,2.05
2023-05-19T09:46:07.862Z,2.22
2023-05-19T09:48:36.568Z,2.17
2023-05-19T09:51:07.717Z,2.75
2023-05-19T09:53:35.271Z,2.15
2023-05-19T09:56:04.066Z,2.80
2023-05-19T09:58:35.417Z,2.67
2023-05-19T10:01:04.844Z,2.47
2023-05-19T10:03:35.283Z,3.25
2023-05-19T10:06:05.389Z,2.90
2023-05-19T10:08:34.346Z,3.72
2023-05-19T10:11:03.161Z,2.88
2023-05-19T10:13:32.097Z,3.28
2023-05-19T10:16:00.623Z,3.33
2023-05-19T10:18:29.550Z,3.05
2023-05-19T10:20:58.081Z,2.92
2023-05-19T10:23:26.070Z,3.15
2023-05-19T10:25:58.838Z,3.08
2023-05-19T10:28:43.203Z,2.72
2023-05-19T10:31:19.429Z,2.92
2023-05-19T10:34:33.607Z,3.10
2023-05-19T10:37:37.760Z,2.40
2023-05-19T10:40:21.058Z,2.88
2023-05-19T10:43:12.638Z,3.38
2023-05-19T10:45:49.424Z,2.80
2023-05-19T10:48:17.417Z,2.55
2023-05-19T10:50:46.773Z,2.70
2023-05-19T10:53:19.292Z,2.92
2023-05-19T10:55:59.070Z,2.63
2023-05-19T10:58:44.053Z,2.72
2023-05-19T11:01:16.995Z,2.88
2023-05-19T11:03:57.402Z,2.97
2023-05-19T11:06:33.314Z,2.60
2023-05-19T11:09:12.421Z,2.00
2023-05-19T11:11:49.958Z,2.33
2023-05-19T11:14:26.794Z,2.60
2023-05-19T11:16:59.085Z,2.38
2023-05-19T11:19:34.634Z,3.10
2023-05-19T11:22:12.959Z,2.20
2023-05-19T11:27:33.220Z,2.97
2023-05-19T11:30:11.607Z,2.40
2023-05-19T11:32:39.524Z,2.50
2023-05-19T11:35:08.188Z,3.58
2023-05-19T11:37:35.904Z,3.13
2023-05-19T11:40:08.924Z,3.05
2023-05-19T11:42:37.061Z,2.38
2023-05-19T11:45:06.373Z,2.13
2023-05-19T11:47:42.117Z,2.30
2023-05-19T11:50:20.553Z,2.45
2023-05-19T11:52:47.971Z,2.25
2023-05-19T11:55:19.344Z,2.60
2023-05-19T11:58:03.029Z,2.50
2023-05-19T12:00:39.590Z,2.22
2023-05-19T12:03:08.311Z,2.70
2023-05-19T12:05:48.151Z,2.85
2023-05-19T12:08:18.463Z,2.30
2023-05-19T12:10:51.818Z,2.75
2023-05-19T12:13:19.913Z,2.30
2023-05-19T12:15:46.984Z,2.60
2023-05-19T12:18:14.040Z,2.55
2023-05-19T12:20:41.253Z,2.47
2023-05-19T12:23:08.953Z,2.35
2023-05-19T12:25:36.399Z,2.40
2023-05-19T12:28:03.891Z,2.63
2023-05-19T12:30:32.901Z,2.20
2023-05-19T12:33:02.729Z,2.72
2023-05-19T12:35:34.603Z,2.90
2023-05-19T12:38:06.231Z,2.20
2023-05-19T12:40:40.223Z,2.75
2023-05-19T12:43:18.498Z,2.92
2023-05-19T12:45:45.533Z,2.90
2023-05-19T12:48:12.869Z,2.80
2023-05-19T12:50:39.953Z,2.63
2023-05-19T12:53:12.158Z,2.92
2023-05-19T12:55:44.768Z,2.60
2023-05-19T12:58:12.985Z,3.00
2023-05-19T13:00:45.676Z,3.00
2023-05-19T13:03:20.555Z,2.63
2023-05-19T13:05:50.953Z,2.63
2023-05-19T13:08:21.648Z,2.75
2023-05-19T13:10:51.563Z,2.50
2023-05-19T13:13:18.518Z,2.65
2023-05-19T13:15:49.071Z,2.80
2023-05-19T13:18:17.635Z,2.80
2023-05-19T13:20:47.330Z,2.80
2023-05-19T13:23:16.180Z,2.90
2023-05-19T13:25:43.667Z,2.90
2023-05-19T13:28:11.150Z,2.67
2023-05-19T13:30:40.587Z,2.80
2023-05-19T13:33:08.170Z,3.05
2023-05-19T13:35:38.857Z,2.63
2023-05-19T13:38:07.941Z,3.13
2023-05-19T13:40:35.219Z,2.00
2023-05-19T13:43:05.983Z,3.03
2023-05-19T13:45:33.856Z,2.60
2023-05-19T13:48:00.994Z,3.00
2023-05-19T13:50:28.109Z,3.05
2023-05-19T13:52:55.015Z,3.13
2023-05-19T13:55:23.300Z,2.80
2023-05-19T13:57:50.931Z,3.08
2023-05-19T14:00:19.373Z,2.50
2023-05-19T14:02:46.516Z,2.60
2023-05-19T14:05:13.631Z,3.42
2023-05-19T14:07:40.627Z,2.67
2023-05-19T14:10:08.405Z,3.00
2023-05-19T14:12:49.463Z,2.70
2023-05-19T14:15:23.785Z,2.88
2023-05-19T14:17:50.933Z,2.70
2023-05-19T14:20:21.971Z,2.90
2023-05-19T14:22:48.874Z,2.80
2023-05-19T14:25:16.052Z,3.00
2023-05-19T14:27:42.906Z,2.67
2023-05-19T14:30:10.450Z,2.75
2023-05-19T14:32:37.268Z,2.63
2023-05-19T14:35:04.959Z,2.88
2023-05-19T14:37:32.289Z,2.72
2023-05-19T14:39:59.376Z,3.42
2023-05-19T14:42:26.241Z,3.45
2023-05-19T14:44:53.091Z,2.97
2023-05-19T14:47:19.911Z,2.90
2023-05-19T14:49:47.072Z,2.63
2023-05-19T14:52:13.886Z,2.95
2023-05-19T14:54:40.827Z,2.97
2023-05-19T14:57:08.159Z,3.22
2023-05-19T14:59:38.545Z,2.53
2023-05-19T15:02:05.975Z,2.50
2023-05-19T15:04:32.861Z,2.60
2023-05-19T15:07:09.925Z,2.40
2023-05-19T15:09:37.638Z,2.92
2023-05-19T15:12:04.698Z,2.70
2023-05-19T15:14:31.727Z,3.03
2023-05-19T15:16:59.185Z,2.80
2023-05-19T15:19:26.520Z,2.53
2023-05-19T15:21:53.636Z,2.60
2023-05-19T15:24:20.555Z,2.55
2023-05-19T15:26:47.601Z,2.90
2023-05-19T15:29:14.535Z,2.50
2023-05-19T15:31:41.572Z,2.80
2023-05-19T15:34:08.692Z,2.50
2023-05-19T15:36:35.600Z,2.90
2023-05-19T15:39:03.711Z,2.15
2023-05-19T15:41:30.720Z,2.85
2023-05-19T15:44:00.241Z,2.60
2023-05-19T15:46:27.439Z,2.13
2023-05-19T15:48:54.782Z,2.55
2023-05-19T15:51:22.583Z,2.67
2023-05-19T15:53:49.495Z,2.20
2023-05-19T15:56:16.579Z,2.53
2023-05-19T15:58:43.582Z,2.70
2023-05-19T16:01:10.690Z,2.67
2023-05-19T16:03:38.083Z,2.65
2023-05-19T16:06:05.372Z,2.75
2023-05-19T16:08:32.310Z,3.13
2023-05-19T16:10:59.199Z,2.65
2023-05-19T16:13:26.047Z,3.00
2023-05-19T16:15:53.038Z,2.88
2023-05-19T16:18:19.969Z,2.40
2023-05-19T16:20:46.875Z,2.88
2023-05-19T16:23:13.772Z,2.88
2023-05-19T16:25:41.518Z,2.35
2023-05-19T16:28:08.943Z,2.47
2023-05-19T16:30:36.401Z,2.78
2023-05-19T16:33:03.539Z,2.35
2023-05-19T16:35:30.963Z,2.70
2023-05-19T16:37:57.999Z,2.90
2023-05-19T16:40:24.918Z,2.70
2023-05-19T16:42:54.616Z,3.25
2023-05-19T16:45:21.496Z,2.90
2023-05-19T16:47:48.383Z,2.42
2023-05-19T16:50:15.379Z,3.25
2023-05-19T16:52:42.424Z,2.67
2023-05-19T16:55:09.754Z,3.70
2023-05-19T16:57:36.643Z,3.33
2023-05-19T17:00:04.029Z,2.80
2023-05-19T17:02:31.053Z,2.90
2023-05-19T17:04:57.960Z,3.00
2023-05-19T17:07:24.773Z,2.90
2023-05-19T17:09:53.009Z,3.50
2023-05-19T17:12:21.349Z,2.78
2023-05-19T17:14:49.927Z,2.97
2023-05-19T17:17:16.818Z,2.70
2023-05-19T17:19:43.940Z,2.80
2023-05-19T17:22:10.758Z,2.60
2023-05-19T17:24:37.585Z,2.80
2023-05-19T17:27:04.851Z,3.00
2023-05-19T17:29:31.736Z,2.80
2023-05-19T17:31:58.610Z,2.70
2023-05-19T17:34:25.568Z,2.75
2023-05-19T17:36:52.375Z,2.92
2023-05-19T17:39:20.247Z,2.88
2023-05-19T17:41:47.194Z,2.70
2023-05-19T17:44:14.878Z,2.88
2023-05-19T17:46:41.769Z,2.72
2023-05-19T17:49:10.521Z,2.55
2023-05-19T17:51:37.905Z,2.90
2023-05-19T17:54:05.473Z,2.50
2023-05-19T17:56:39.692Z,2.38
2023-05-19T17:59:07.120Z,2.95
2023-05-19T18:01:34.428Z,2.53
2023-05-19T18:04:02.415Z,2.42
2023-05-19T18:06:31.845Z,2.90
2023-05-19T18:09:03.279Z,3.05
2023-05-19T18:11:30.097Z,2.80
2023-05-19T18:13:57.448Z,2.83
2023-05-19T18:16:25.582Z,3.05
2023-05-19T18:18:52.569Z,2.55
2023-05-19T18:21:19.493Z,2.58
2023-05-19T18:23:46.973Z,4.95
2023-05-19T18:26:14.212Z,3.08
2023-05-19T18:28:42.025Z,2.67
2023-05-19T18:31:10.997Z,2.60
2023-05-19T18:33:37.809Z,2.60
2023-05-19T18:36:04.895Z,2.65
2023-05-19T18:38:31.749Z,3.00
2023-05-19T18:41:00.697Z,2.60
2023-05-19T18:43:30.108Z,2.70
2023-05-19T18:45:57.265Z,3.92
2023-05-19T18:48:28.371Z,3.08
2023-05-19T18:50:55.289Z,3.10
2023-05-19T18:53:22.725Z,2.72
2023-05-19T18:55:49.660Z,3.08
2023-05-19T18:58:20.634Z,2.97
2023-05-19T19:00:47.556Z,2.85
2023-05-19T19:03:14.457Z,3.05
2023-05-19T19:05:41.721Z,3.35
2023-05-19T19:08:08.627Z,2.85
2023-05-19T19:10:39.034Z,2.97
2023-05-19T19:13:06.548Z,2.88
2023-05-19T19:15:33.382Z,3.17
2023-05-19T19:18:00.545Z,2.92
2023-05-19T19:20:27.452Z,3.00
2023-05-19T19:22:54.330Z,3.20
2023-05-19T19:25:23.259Z,3.15
2023-05-19T19:27:51.226Z,2.80
2023-05-19T19:30:18.090Z,3.28
2023-05-19T19:32:44.981Z,3.65
2023-05-19T19:35:11.947Z,3.13
2023-05-19T19:37:38.870Z,3.20
2023-05-19T19:40:06.805Z,3.35
2023-05-19T19:42:34.069Z,3.13
2023-05-19T19:45:01.000Z,3.63
2023-05-19T19:47:27.915Z,3.00
2023-05-19T19:49:55.907Z,3.00
2023-05-19T19:52:22.722Z,3.20
2023-05-19T19:54:49.628Z,3.25
2023-05-19T19:57:19.152Z,3.15
2023-05-19T19:59:46.029Z,3.28
2023-05-19T20:02:14.132Z,3.47
2023-05-19T20:04:41.306Z,3.38
2023-05-19T20:07:08.796Z,3.25
2023-05-19T20:09:35.818Z,3.00
2023-05-19T20:12:02.666Z,3.10
2023-05-19T20:14:29.523Z,3.58
2023-05-19T20:16:56.674Z,3.53
2023-05-19T20:19:27.963Z,3.60
2023-05-19T20:21:57.124Z,3.22
2023-05-19T20:24:23.941Z,3.65
2023-05-19T20:26:50.817Z,3.53
2023-05-19T20:29:17.691Z,3.70
2023-05-19T20:31:46.601Z,3.30
2023-05-19T20:34:13.526Z,3.47
2023-05-19T20:36:40.892Z,3.90
2023-05-19T20:39:09.687Z,3.30
2023-05-19T20:41:36.715Z,3.40
2023-05-19T20:44:03.992Z,3.25
2023-05-19T20:46:30.938Z,3.70
2023-05-19T20:48:57.832Z,3.30
2023-05-19T20:51:25.343Z,3.70
2023-05-19T20:53:52.196Z,3.03
2023-05-19T20:56:19.894Z,3.50
2023-05-19T20:58:46.760Z,3.28
2023-05-19T21:01:13.587Z,3.05
2023-05-19T21:03:40.476Z,3.25
2023-05-19T21:06:07.338Z,3.22
2023-05-19T21:08:34.285Z,2.80
2023-05-19T21:11:01.069Z,3.05
2023-05-19T21:13:27.877Z,3.40
2023-05-19T21:15:57.062Z,3.28
2023-05-19T21:18:23.976Z,3.40
2023-05-19T21:20:50.824Z,3.30
2023-05-19T21:23:17.709Z,2.75
2023-05-19T21:25:45.396Z,3.38
2023-05-19T21:28:12.581Z,2.88
2023-05-19T21:30:39.407Z,2.75
2023-05-19T21:33:06.276Z,3.42
2023-05-19T21:35:33.133Z,3.28
2023-05-19T21:38:12.031Z,2.50
2023-05-19T21:40:48.522Z,3.08
2023-05-19T21:43:15.473Z,2.80
2023-05-19T21:45:42.311Z,2.80
2023-05-19T21:48:09.254Z,3.63
2023-05-19T21:50:38.036Z,3.08
2023-05-19T21:53:05.628Z,2.90
2023-05-19T21:55:32.460Z,2.80
2023-05-19T21:58:00.963Z,2.40
2023-05-19T22:00:29.308Z,2.45
2023-05-19T22:02:56.234Z,2.80
2023-05-19T22:05:23.121Z,2.80
2023-05-19T22:07:50.079Z,2.72
2023-05-19T22:10:17.444Z,3.45
2023-05-19T22:12:44.272Z,2.90
2023-05-19T22:15:13.262Z,3.05
2023-05-19T22:17:40.228Z,2.92
2023-05-19T22:20:08.161Z,2.70
2023-05-19T22:22:35.414Z,2.88
2023-05-19T22:25:03.841Z,3.00
2023-05-19T22:27:30.786Z,3.20
2023-05-19T22:29:59.643Z,3.03
2023-05-19T22:32:26.688Z,3.00
2023-05-19T22:34:53.679Z,2.95
2023-05-19T22:37:24.005Z,2.80
2023-05-19T22:39:51.535Z,2.60
2023-05-19T22:42:18.657Z,3.17
2023-05-19T22:44:45.892Z,3.28
2023-05-19T22:47:13.910Z,2.80
2023-05-19T22:49:41.593Z,2.70
2023-05-19T22:52:11.063Z,2.80
2023-05-19T22:54:38.292Z,2.58
2023-05-19T22:57:05.545Z,3.05
2023-05-19T22:59:32.410Z,2.92
2023-05-19T23:01:59.288Z,3.10
2023-05-19T23:04:26.460Z,3.05
2023-05-19T23:06:53.346Z,3.30
2023-05-19T23:09:20.204Z,3.50
2023-05-19T23:11:47.398Z,3.50
2023-05-19T23:14:14.259Z,3.33
2023-05-19T23:16:41.132Z,3.58
2023-05-19T23:19:08.270Z,3.42
2023-05-19T23:21:35.202Z,3.50
2023-05-19T23:24:02.122Z,3.40
2023-05-19T23:26:28.927Z,3.38
2023-05-19T23:28:55.822Z,3.60
2023-05-19T23:31:22.782Z,3.70
2023-05-19T23:33:49.793Z,3.92
2023-05-19T23:36:17.714Z,3.60
2023-05-19T23:38:44.559Z,3.20
2023-05-19T23:41:11.482Z,3.67
2023-05-19T23:43:38.298Z,3.55
2023-05-19T23:46:05.632Z,4.93
2023-05-19T23:48:36.608Z,4.00
2023-05-19T23:51:04.543Z,3.95
2023-05-19T23:53:31.465Z,3.45
2023-05-19T23:55:58.813Z,4.03
2023-05-19T23:58:25.944Z,4.15
